sensor_id;sensor_type;location;lat;lon;timestamp;pressure;altitude;pressure_sealevel;temperature;humidity
9523;BME280;63165;43.016;25.784;2022-09-12T00:01:16;99648.47;;;19.24;93.13
9523;BME280;63165;43.016;25.784;2022-09-12T00:03:44;99659.16;;;19.22;93.30
9523;BME280;63165;43.016;25.784;2022-09-12T00:06:15;99661.81;;;19.22;93.98
9523;BME280;63165;43.016;25.784;2022-09-12T00:08:43;99669.69;;;19.24;94.10
9523;BME280;63165;43.016;25.784;2022-09-12T00:11:11;99669.59;;;19.25;94.80
9523;BME280;63165;43.016;25.784;2022-09-12T00:13:40;99673.94;;;19.26;94.16
9523;BME280;63165;43.016;25.784;2022-09-12T00:16:15;99681.81;;;19.28;94.50
9523;BME280;63165;43.016;25.784;2022-09-12T00:18:43;99668.63;;;19.26;93.54
9523;BME280;63165;43.016;25.784;2022-09-12T00:21:12;99662.56;;;19.24;92.85
9523;BME280;63165;43.016;25.784;2022-09-12T00:23:39;99660.78;;;19.25;93.79
9523;BME280;63165;43.016;25.784;2022-09-12T00:26:07;99659.22;;;19.20;94.75
9523;BME280;63165;43.016;25.784;2022-09-12T00:28:35;99660.38;;;19.16;94.65
9523;BME280;63165;43.016;25.784;2022-09-12T00:31:04;99656.28;;;19.11;94.91
9523;BME280;63165;43.016;25.784;2022-09-12T00:33:34;99657.13;;;19.11;95.72
9523;BME280;63165;43.016;25.784;2022-09-12T00:36:03;99658.00;;;19.12;96.53
9523;BME280;63165;43.016;25.784;2022-09-12T00:38:31;99657.91;;;19.13;95.96
9523;BME280;63165;43.016;25.784;2022-09-12T00:41:00;99660.66;;;19.12;95.90
9523;BME280;63165;43.016;25.784;2022-09-12T00:43:36;99663.22;;;19.13;96.90
9523;BME280;63165;43.016;25.784;2022-09-12T00:46:09;99658.09;;;19.10;96.86
9523;BME280;63165;43.016;25.784;2022-09-12T00:48:44;99660.72;;;19.10;98.00
9523;BME280;63165;43.016;25.784;2022-09-12T00:51:12;99653.63;;;19.11;97.29
9523;BME280;63165;43.016;25.784;2022-09-12T00:53:40;99652.69;;;19.12;97.24
9523;BME280;63165;43.016;25.784;2022-09-12T00:56:09;99658.25;;;19.07;96.98
9523;BME280;63165;43.016;25.784;2022-09-12T00:58:41;99666.13;;;19.09;97.22
9523;BME280;63165;43.016;25.784;2022-09-12T01:01:10;99662.72;;;19.07;96.62
9523;BME280;63165;43.016;25.784;2022-09-12T01:03:37;99656.44;;;19.08;96.46
9523;BME280;63165;43.016;25.784;2022-09-12T01:06:10;99652.09;;;19.07;97.67
9523;BME280;63165;43.016;25.784;2022-09-12T01:08:42;99656.56;;;19.06;97.70
9523;BME280;63165;43.016;25.784;2022-09-12T01:11:10;99655.19;;;18.99;97.82
9523;BME280;63165;43.016;25.784;2022-09-12T01:13:38;99657.84;;;18.99;98.30
9523;BME280;63165;43.016;25.784;2022-09-12T01:16:06;99648.16;;;18.98;98.68
9523;BME280;63165;43.016;25.784;2022-09-12T01:18:42;99644.75;;;18.96;98.84
9523;BME280;63165;43.016;25.784;2022-09-12T01:21:19;99634.34;;;18.93;99.02
9523;BME280;63165;43.016;25.784;2022-09-12T01:33:01;99616.06;;;18.88;97.34
9523;BME280;63165;43.016;25.784;2022-09-12T01:35:35;99611.78;;;18.86;97.22
9523;BME280;63165;43.016;25.784;2022-09-12T01:38:09;99611.13;;;18.82;97.15
9523;BME280;63165;43.016;25.784;2022-09-12T01:40:44;99613.84;;;18.80;98.13
9523;BME280;63165;43.016;25.784;2022-09-12T01:43:20;99614.94;;;18.76;97.85
9523;BME280;63165;43.016;25.784;2022-09-12T01:45:56;99613.41;;;18.72;98.43
9523;BME280;63165;43.016;25.784;2022-09-12T01:48:29;99619.03;;;18.66;98.19
9523;BME280;63165;43.016;25.784;2022-09-12T01:51:05;99621.22;;;18.59;99.29
9523;BME280;63165;43.016;25.784;2022-09-12T01:53:38;99619.56;;;18.57;99.98
9523;BME280;63165;43.016;25.784;2022-09-12T01:56:10;99625.13;;;18.52;100.00
9523;BME280;63165;43.016;25.784;2022-09-12T01:58:42;99619.91;;;18.51;100.00
9523;BME280;63165;43.016;25.784;2022-09-12T02:01:14;99611.97;;;18.51;99.70
9523;BME280;63165;43.016;25.784;2022-09-12T02:03:47;99623.34;;;18.53;99.85
9523;BME280;63165;43.016;25.784;2022-09-12T02:06:19;99619.75;;;18.54;100.00
9523;BME280;63165;43.016;25.784;2022-09-12T02:08:50;99625.81;;;18.56;100.00
9523;BME280;63165;43.016;25.784;2022-09-12T02:11:19;99614.94;;;18.60;100.00
9523;BME280;63165;43.016;25.784;2022-09-12T02:13:51;99604.19;;;18.63;100.00
9523;BME280;63165;43.016;25.784;2022-09-12T02:16:23;99616.31;;;18.68;100.00
9523;BME280;63165;43.016;25.784;2022-09-12T02:18:56;99610.31;;;18.64;100.00
9523;BME280;63165;43.016;25.784;2022-09-12T02:21:26;99613.75;;;18.66;100.00
9523;BME280;63165;43.016;25.784;2022-09-12T02:24:00;99618.88;;;18.69;100.00
9523;BME280;63165;43.016;25.784;2022-09-12T02:26:31;99609.31;;;18.67;100.00
9523;BME280;63165;43.016;25.784;2022-09-12T02:29:01;99616.59;;;18.63;100.00
9523;BME280;63165;43.016;25.784;2022-09-12T02:31:33;99619.03;;;18.66;100.00
9523;BME280;63165;43.016;25.784;2022-09-12T02:34:11;99617.34;;;18.65;100.00
9523;BME280;63165;43.016;25.784;2022-09-12T02:36:47;99614.03;;;18.61;99.86
9523;BME280;63165;43.016;25.784;2022-09-12T02:39:17;99613.34;;;18.58;99.31
9523;BME280;63165;43.016;25.784;2022-09-12T02:41:46;99620.84;;;18.50;99.07
9523;BME280;63165;43.016;25.784;2022-09-12T02:44:13;99617.63;;;18.45;99.36
9523;BME280;63165;43.016;25.784;2022-09-12T02:46:43;99615.22;;;18.40;99.91
9523;BME280;63165;43.016;25.784;2022-09-12T02:49:13;99610.00;;;18.38;99.35
9523;BME280;63165;43.016;25.784;2022-09-12T02:51:41;99605.91;;;18.33;99.21
9523;BME280;63165;43.016;25.784;2022-09-12T02:54:09;99614.88;;;18.30;99.50
9523;BME280;63165;43.016;25.784;2022-09-12T02:56:40;99615.16;;;18.26;98.99
9523;BME280;63165;43.016;25.784;2022-09-12T02:59:11;99622.22;;;18.25;98.97
9523;BME280;63165;43.016;25.784;2022-09-12T03:01:53;99616.16;;;18.23;98.90
9523;BME280;63165;43.016;25.784;2022-09-12T03:04:48;99619.16;;;18.17;99.64
9523;BME280;63165;43.016;25.784;2022-09-12T03:07:27;99619.16;;;18.17;98.79
9523;BME280;63165;43.016;25.784;2022-09-12T03:10:05;99631.78;;;18.12;98.12
9523;BME280;63165;43.016;25.784;2022-09-12T03:12:45;99624.94;;;18.08;98.06
9523;BME280;63165;43.016;25.784;2022-09-12T03:15:27;99617.09;;;18.06;98.06
9523;BME280;63165;43.016;25.784;2022-09-12T03:18:06;99619.13;;;18.01;97.88
9523;BME280;63165;43.016;25.784;2022-09-12T03:20:49;99630.91;;;17.95;98.15
9523;BME280;63165;43.016;25.784;2022-09-12T03:23:24;99632.97;;;17.90;98.17
9523;BME280;63165;43.016;25.784;2022-09-12T03:25:58;99632.38;;;17.83;97.66
9523;BME280;63165;43.016;25.784;2022-09-12T03:28:28;99631.78;;;17.78;97.09
9523;BME280;63165;43.016;25.784;2022-09-12T03:30:55;99623.13;;;17.75;96.35
9523;BME280;63165;43.016;25.784;2022-09-12T03:33:25;99629.53;;;17.71;97.05
9523;BME280;63165;43.016;25.784;2022-09-12T03:35:54;99630.78;;;17.63;96.67
9523;BME280;63165;43.016;25.784;2022-09-12T03:38:21;99632.84;;;17.58;96.19
9523;BME280;63165;43.016;25.784;2022-09-12T03:40:49;99631.28;;;17.54;95.93
9523;BME280;63165;43.016;25.784;2022-09-12T03:43:16;99642.88;;;17.52;95.51
9523;BME280;63165;43.016;25.784;2022-09-12T03:45:44;99643.81;;;17.51;95.83
9523;BME280;63165;43.016;25.784;2022-09-12T03:48:11;99645.78;;;17.47;95.45
9523;BME280;63165;43.016;25.784;2022-09-12T03:50:38;99650.38;;;17.43;95.32
9523;BME280;63165;43.016;25.784;2022-09-12T03:53:07;99645.28;;;17.39;96.36
9523;BME280;63165;43.016;25.784;2022-09-12T03:55:34;99654.56;;;17.30;96.02
9523;BME280;63165;43.016;25.784;2022-09-12T03:58:01;99649.50;;;17.25;96.85
9523;BME280;63165;43.016;25.784;2022-09-12T04:00:29;99651.63;;;17.19;97.50
9523;BME280;63165;43.016;25.784;2022-09-12T04:02:56;99654.25;;;17.19;97.64
9523;BME280;63165;43.016;25.784;2022-09-12T04:05:24;99658.75;;;17.17;98.09
9523;BME280;63165;43.016;25.784;2022-09-12T04:07:52;99660.69;;;17.13;97.47
9523;BME280;63165;43.016;25.784;2022-09-12T04:10:21;99654.72;;;17.10;97.41
9523;BME280;63165;43.016;25.784;2022-09-12T04:12:48;99664.66;;;17.04;98.08
9523;BME280;63165;43.016;25.784;2022-09-12T04:15:16;99666.66;;;16.99;98.40
9523;BME280;63165;43.016;25.784;2022-09-12T04:17:43;99659.88;;;16.94;98.24
9523;BME280;63165;43.016;25.784;2022-09-12T04:20:10;99656.47;;;16.92;98.47
9523;BME280;63165;43.016;25.784;2022-09-12T04:22:37;99646.81;;;16.91;98.94
9523;BME280;63165;43.016;25.784;2022-09-12T04:25:06;99662.84;;;16.87;99.39
9523;BME280;63165;43.016;25.784;2022-09-12T04:27:35;99665.50;;;16.87;100.00
9523;BME280;63165;43.016;25.784;2022-09-12T04:30:04;99675.28;;;16.85;100.00
9523;BME280;63165;43.016;25.784;2022-09-12T04:32:31;99665.56;;;16.86;100.00
9523;BME280;63165;43.016;25.784;2022-09-12T04:34:58;99678.69;;;16.87;100.00
9523;BME280;63165;43.016;25.784;2022-09-12T04:37:26;99673.09;;;16.94;100.00
9523;BME280;63165;43.016;25.784;2022-09-12T04:39:54;99670.41;;;16.95;100.00
9523;BME280;63165;43.016;25.784;2022-09-12T04:42:22;99672.03;;;16.98;100.00
9523;BME280;63165;43.016;25.784;2022-09-12T04:44:51;99676.91;;;17.05;100.00
9523;BME280;63165;43.016;25.784;2022-09-12T04:47:19;99685.41;;;17.12;98.62
9523;BME280;63165;43.016;25.784;2022-09-12T04:49:48;99678.97;;;17.18;98.09
9523;BME280;63165;43.016;25.784;2022-09-12T04:52:16;99687.53;;;17.23;96.96
9523;BME280;63165;43.016;25.784;2022-09-12T04:54:43;99681.84;;;17.31;97.19
9523;BME280;63165;43.016;25.784;2022-09-12T04:57:10;99688.44;;;17.39;96.32
9523;BME280;63165;43.016;25.784;2022-09-12T04:59:37;99686.38;;;17.46;95.31
9523;BME280;63165;43.016;25.784;2022-09-12T05:02:06;99687.75;;;17.53;95.12
9523;BME280;63165;43.016;25.784;2022-09-12T05:04:34;99689.16;;;17.60;93.89
9523;BME280;63165;43.016;25.784;2022-09-12T05:07:01;99697.56;;;17.69;93.48
9523;BME280;63165;43.016;25.784;2022-09-12T05:09:28;99686.63;;;17.75;92.52
9523;BME280;63165;43.016;25.784;2022-09-12T05:11:56;99692.41;;;17.83;92.83
9523;BME280;63165;43.016;25.784;2022-09-12T05:14:23;99698.16;;;17.91;92.70
9523;BME280;63165;43.016;25.784;2022-09-12T05:16:51;99705.56;;;18.02;92.07
9523;BME280;63165;43.016;25.784;2022-09-12T05:19:20;99696.28;;;18.11;91.64
9523;BME280;63165;43.016;25.784;2022-09-12T05:21:47;99700.81;;;18.24;92.60
9523;BME280;63165;43.016;25.784;2022-09-12T05:24:15;99697.50;;;18.37;93.46
9523;BME280;63165;43.016;25.784;2022-09-12T05:26:42;99695.13;;;18.48;91.61
9523;BME280;63165;43.016;25.784;2022-09-12T05:29:09;99683.91;;;18.59;90.86
9523;BME280;63165;43.016;25.784;2022-09-12T05:31:37;99688.63;;;18.70;89.74
9523;BME280;63165;43.016;25.784;2022-09-12T05:34:05;99685.41;;;18.80;89.20
9523;BME280;63165;43.016;25.784;2022-09-12T05:36:36;99681.19;;;18.92;87.80
9523;BME280;63165;43.016;25.784;2022-09-12T05:39:03;99698.31;;;19.03;87.44
9523;BME280;63165;43.016;25.784;2022-09-12T05:41:31;99690.66;;;19.12;86.70
9523;BME280;63165;43.016;25.784;2022-09-12T05:44:01;99701.34;;;19.27;85.93
9523;BME280;63165;43.016;25.784;2022-09-12T05:46:30;99691.78;;;19.38;84.66
9523;BME280;63165;43.016;25.784;2022-09-12T05:49:02;99687.75;;;19.47;83.70
9523;BME280;63165;43.016;25.784;2022-09-12T05:51:32;99687.00;;;19.59;82.08
9523;BME280;63165;43.016;25.784;2022-09-12T05:54:03;99688.25;;;19.68;80.64
9523;BME280;63165;43.016;25.784;2022-09-12T05:56:35;99690.41;;;19.77;80.49
9523;BME280;63165;43.016;25.784;2022-09-12T05:59:05;99681.66;;;19.90;79.28
9523;BME280;63165;43.016;25.784;2022-09-12T06:01:34;99687.28;;;20.00;78.64
9523;BME280;63165;43.016;25.784;2022-09-12T06:04:03;99684.06;;;20.09;78.46
9523;BME280;63165;43.016;25.784;2022-09-12T06:06:34;99694.22;;;20.16;78.28
9523;BME280;63165;43.016;25.784;2022-09-12T06:09:04;99689.34;;;20.23;75.71
9523;BME280;63165;43.016;25.784;2022-09-12T06:11:33;99687.19;;;20.30;74.67
9523;BME280;63165;43.016;25.784;2022-09-12T06:14:02;99682.31;;;20.36;73.99
9523;BME280;63165;43.016;25.784;2022-09-12T06:16:32;99686.19;;;20.45;73.76
9523;BME280;63165;43.016;25.784;2022-09-12T06:19:02;99682.97;;;20.54;73.30
9523;BME280;63165;43.016;25.784;2022-09-12T06:21:30;99685.91;;;20.64;72.67
9523;BME280;63165;43.016;25.784;2022-09-12T06:24:00;99682.00;;;20.70;71.62
9523;BME280;63165;43.016;25.784;2022-09-12T06:26:30;99690.88;;;20.83;71.46
9523;BME280;63165;43.016;25.784;2022-09-12T06:28:59;99688.38;;;20.94;71.40
9523;BME280;63165;43.016;25.784;2022-09-12T06:31:29;99686.63;;;21.08;71.73
9523;BME280;63165;43.016;25.784;2022-09-12T06:33:59;99686.66;;;21.21;70.63
9523;BME280;63165;43.016;25.784;2022-09-12T06:36:28;99685.94;;;21.31;69.78
9523;BME280;63165;43.016;25.784;2022-09-12T06:38:58;99685.81;;;21.47;69.72
9523;BME280;63165;43.016;25.784;2022-09-12T06:41:26;99699.75;;;21.64;69.98
9523;BME280;63165;43.016;25.784;2022-09-12T06:43:55;99691.78;;;21.77;68.96
9523;BME280;63165;43.016;25.784;2022-09-12T06:46:23;99693.81;;;21.86;67.69
9523;BME280;63165;43.016;25.784;2022-09-12T06:48:50;99692.13;;;21.85;66.26
9523;BME280;63165;43.016;25.784;2022-09-12T06:51:18;99683.69;;;21.78;65.23
9523;BME280;63165;43.016;25.784;2022-09-12T06:53:46;99685.59;;;21.76;64.81
9523;BME280;63165;43.016;25.784;2022-09-12T06:56:15;99684.66;;;21.77;65.30
9523;BME280;63165;43.016;25.784;2022-09-12T06:58:44;99689.66;;;21.82;65.01
9523;BME280;63165;43.016;25.784;2022-09-12T07:01:15;99687.53;;;21.87;65.12
9523;BME280;63165;43.016;25.784;2022-09-12T07:03:46;99690.94;;;22.02;64.29
9523;BME280;63165;43.016;25.784;2022-09-12T07:06:15;99682.06;;;22.14;63.81
9523;BME280;63165;43.016;25.784;2022-09-12T07:08:42;99683.13;;;22.24;63.48
9523;BME280;63165;43.016;25.784;2022-09-12T07:11:12;99680.59;;;22.36;63.17
9523;BME280;63165;43.016;25.784;2022-09-12T07:13:40;99687.25;;;22.54;61.87
9523;BME280;63165;43.016;25.784;2022-09-12T07:16:09;99688.91;;;22.68;60.65
9523;BME280;63165;43.016;25.784;2022-09-12T07:18:38;99676.75;;;22.64;60.59
9523;BME280;63165;43.016;25.784;2022-09-12T07:21:08;99685.78;;;22.74;60.59
9523;BME280;63165;43.016;25.784;2022-09-12T07:23:36;99681.13;;;22.89;60.83
9523;BME280;63165;43.016;25.784;2022-09-12T07:26:05;99670.34;;;23.03;60.97
9523;BME280;63165;43.016;25.784;2022-09-12T07:28:33;99675.25;;;23.21;59.43
9523;BME280;63165;43.016;25.784;2022-09-12T07:31:04;99680.28;;;23.37;57.49
9523;BME280;63165;43.016;25.784;2022-09-12T07:33:32;99685.78;;;23.47;57.49
9523;BME280;63165;43.016;25.784;2022-09-12T07:36:02;99676.94;;;23.57;56.68
9523;BME280;63165;43.016;25.784;2022-09-12T07:38:30;99679.88;;;23.65;56.63
9523;BME280;63165;43.016;25.784;2022-09-12T07:40:57;99676.84;;;23.70;56.50
9523;BME280;63165;43.016;25.784;2022-09-12T07:43:25;99670.19;;;23.76;55.18
9523;BME280;63165;43.016;25.784;2022-09-12T07:45:56;99653.59;;;23.83;54.41
9523;BME280;63165;43.016;25.784;2022-09-12T07:48:23;99670.34;;;23.86;54.77
9523;BME280;63165;43.016;25.784;2022-09-12T07:50:57;99666.34;;;23.91;55.27
9523;BME280;63165;43.016;25.784;2022-09-12T07:53:30;99671.19;;;23.97;55.66
9523;BME280;63165;43.016;25.784;2022-09-12T07:55:58;99666.97;;;24.06;54.73
9523;BME280;63165;43.016;25.784;2022-09-12T07:58:27;99659.78;;;24.07;53.38
9523;BME280;63165;43.016;25.784;2022-09-12T08:01:01;99657.97;;;24.07;52.11
9523;BME280;63165;43.016;25.784;2022-09-12T08:03:28;99662.56;;;24.05;52.84
9523;BME280;63165;43.016;25.784;2022-09-12T08:06:02;99661.63;;;24.06;53.17
9523;BME280;63165;43.016;25.784;2022-09-12T08:08:31;99663.34;;;24.07;52.89
9523;BME280;63165;43.016;25.784;2022-09-12T08:10:58;99659.56;;;24.10;51.63
9523;BME280;63165;43.016;25.784;2022-09-12T08:13:26;99663.66;;;24.14;51.44
9523;BME280;63165;43.016;25.784;2022-09-12T08:15:56;99654.44;;;24.18;51.15
9523;BME280;63165;43.016;25.784;2022-09-12T08:18:25;99636.22;;;24.23;50.54
9523;BME280;63165;43.016;25.784;2022-09-12T08:20:57;99645.78;;;24.26;49.81
9523;BME280;63165;43.016;25.784;2022-09-12T08:23:24;99646.53;;;24.28;49.87
9523;BME280;63165;43.016;25.784;2022-09-12T08:25:56;99642.78;;;24.30;50.32
9523;BME280;63165;43.016;25.784;2022-09-12T08:28:24;99636.69;;;24.39;50.06
9523;BME280;63165;43.016;25.784;2022-09-12T08:30:51;99616.34;;;24.48;49.57
9523;BME280;63165;43.016;25.784;2022-09-12T08:33:19;99627.31;;;24.56;48.95
9523;BME280;63165;43.016;25.784;2022-09-12T08:35:46;99623.75;;;24.67;48.89
9523;BME280;63165;43.016;25.784;2022-09-12T08:38:14;99619.84;;;24.71;48.54
9523;BME280;63165;43.016;25.784;2022-09-12T08:40:49;99609.34;;;24.79;47.71
9523;BME280;63165;43.016;25.784;2022-09-12T08:43:30;99611.84;;;24.92;48.79
9523;BME280;63165;43.016;25.784;2022-09-12T08:46:06;99602.81;;;25.05;48.55
9523;BME280;63165;43.016;25.784;2022-09-12T08:48:35;99603.66;;;25.05;48.23
9523;BME280;63165;43.016;25.784;2022-09-12T08:51:03;99607.03;;;25.07;47.69
9523;BME280;63165;43.016;25.784;2022-09-12T08:53:31;99602.75;;;25.16;46.90
9523;BME280;63165;43.016;25.784;2022-09-12T08:56:03;99601.84;;;25.27;46.66
9523;BME280;63165;43.016;25.784;2022-09-12T08:58:38;99599.84;;;25.40;46.96
9523;BME280;63165;43.016;25.784;2022-09-12T09:01:08;99608.66;;;25.52;47.17
9523;BME280;63165;43.016;25.784;2022-09-12T09:03:59;99593.91;;;25.67;46.74
9523;BME280;63165;43.016;25.784;2022-09-12T09:06:45;99587.50;;;25.80;46.56
9523;BME280;63165;43.016;25.784;2022-09-12T09:09:26;99578.66;;;25.89;46.30
9523;BME280;63165;43.016;25.784;2022-09-12T09:12:01;99585.31;;;25.94;45.62
9523;BME280;63165;43.016;25.784;2022-09-12T09:17:38;99575.22;;;26.18;44.71
9523;BME280;63165;43.016;25.784;2022-09-12T09:20:14;99597.22;;;26.11;43.06
9523;BME280;63165;43.016;25.784;2022-09-12T09:22:46;99596.34;;;26.11;42.47
9523;BME280;63165;43.016;25.784;2022-09-12T09:25:18;99588.31;;;26.11;43.43
9523;BME280;63165;43.016;25.784;2022-09-12T09:27:51;99597.50;;;26.08;43.62
9523;BME280;63165;43.016;25.784;2022-09-12T09:30:21;99595.44;;;25.91;42.79
9523;BME280;63165;43.016;25.784;2022-09-12T09:32:53;99595.41;;;25.81;42.64
9523;BME280;63165;43.016;25.784;2022-09-12T09:35:30;99585.66;;;25.80;43.75
9523;BME280;63165;43.016;25.784;2022-09-12T09:38:13;99572.13;;;25.82;44.05
9523;BME280;63165;43.016;25.784;2022-09-12T09:40:50;99577.50;;;25.91;43.99
9523;BME280;63165;43.016;25.784;2022-09-12T09:43:21;99580.97;;;26.03;44.32
9523;BME280;63165;43.016;25.784;2022-09-12T09:45:49;99573.63;;;26.05;43.62
9523;BME280;63165;43.016;25.784;2022-09-12T09:48:22;99579.16;;;26.04;43.44
9523;BME280;63165;43.016;25.784;2022-09-12T09:50:51;99577.59;;;26.11;43.63
9523;BME280;63165;43.016;25.784;2022-09-12T09:53:27;99580.31;;;26.21;44.04
9523;BME280;63165;43.016;25.784;2022-09-12T09:55:59;99581.16;;;26.21;42.62
9523;BME280;63165;43.016;25.784;2022-09-12T09:58:32;99587.81;;;26.27;42.56
9523;BME280;63165;43.016;25.784;2022-09-12T10:01:00;99575.53;;;26.24;41.85
9523;BME280;63165;43.016;25.784;2022-09-12T10:03:31;99572.97;;;26.23;41.36
9523;BME280;63165;43.016;25.784;2022-09-12T10:06:00;99578.78;;;26.28;42.28
9523;BME280;63165;43.016;25.784;2022-09-12T10:08:30;99575.69;;;26.32;41.14
9523;BME280;63165;43.016;25.784;2022-09-12T10:11:00;99582.72;;;26.24;41.60
9523;BME280;63165;43.016;25.784;2022-09-12T10:13:33;99586.78;;;26.18;41.34
9523;BME280;63165;43.016;25.784;2022-09-12T10:16:04;99585.69;;;26.21;41.48
9523;BME280;63165;43.016;25.784;2022-09-12T10:18:37;99578.75;;;26.18;41.56
9523;BME280;63165;43.016;25.784;2022-09-12T10:21:24;99580.28;;;26.11;41.38
9523;BME280;63165;43.016;25.784;2022-09-12T10:24:15;99593.00;;;25.88;40.77
9523;BME280;63165;43.016;25.784;2022-09-12T10:26:52;99579.09;;;25.63;40.81
9523;BME280;63165;43.016;25.784;2022-09-12T10:29:20;99580.44;;;25.48;41.05
9523;BME280;63165;43.016;25.784;2022-09-12T10:31:51;99574.66;;;25.52;41.51
9523;BME280;63165;43.016;25.784;2022-09-12T10:34:24;99585.13;;;25.55;41.26
9523;BME280;63165;43.016;25.784;2022-09-12T10:36:57;99584.06;;;25.47;41.09
9523;BME280;63165;43.016;25.784;2022-09-12T10:39:25;99590.75;;;25.31;41.54
9523;BME280;63165;43.016;25.784;2022-09-12T10:41:53;99586.28;;;25.21;42.11
9523;BME280;63165;43.016;25.784;2022-09-12T10:44:24;99589.09;;;25.19;42.18
9523;BME280;63165;43.016;25.784;2022-09-12T10:46:51;99577.28;;;25.22;42.34
9523;BME280;63165;43.016;25.784;2022-09-12T10:49:26;99578.63;;;25.27;42.58
9523;BME280;63165;43.016;25.784;2022-09-12T10:51:56;99573.84;;;25.31;42.43
9523;BME280;63165;43.016;25.784;2022-09-12T10:54:26;99572.97;;;25.30;41.46
9523;BME280;63165;43.016;25.784;2022-09-12T11:00:07;99569.16;;;25.23;41.84
9523;BME280;63165;43.016;25.784;2022-09-12T11:02:50;99571.84;;;25.23;41.78
9523;BME280;63165;43.016;25.784;2022-09-12T11:05:37;99578.78;;;25.14;41.98
9523;BME280;63165;43.016;25.784;2022-09-12T11:08:15;99578.31;;;25.09;42.20
9523;BME280;63165;43.016;25.784;2022-09-12T11:10:51;99579.81;;;25.02;42.21
9523;BME280;63165;43.016;25.784;2022-09-12T11:13:39;99574.53;;;25.12;42.18
9523;BME280;63165;43.016;25.784;2022-09-12T11:16:18;99571.88;;;25.33;42.72
9523;BME280;63165;43.016;25.784;2022-09-12T11:19:05;99560.72;;;25.58;43.14
9523;BME280;63165;43.016;25.784;2022-09-12T11:21:55;99554.91;;;25.84;42.66
9523;BME280;63165;43.016;25.784;2022-09-12T11:24:36;99562.78;;;26.07;42.05
9523;BME280;63165;43.016;25.784;2022-09-12T11:27:33;99557.28;;;26.18;41.44
9523;BME280;63165;43.016;25.784;2022-09-12T11:30:10;99548.28;;;26.29;41.33
9523;BME280;63165;43.016;25.784;2022-09-12T11:32:56;99556.78;;;26.44;40.42
9523;BME280;63165;43.016;25.784;2022-09-12T11:35:28;99550.00;;;26.49;39.92
9523;BME280;63165;43.016;25.784;2022-09-12T11:38:10;99557.09;;;26.50;39.05
9523;BME280;63165;43.016;25.784;2022-09-12T11:40:43;99554.94;;;26.44;38.98
9523;BME280;63165;43.016;25.784;2022-09-12T11:43:22;99557.75;;;26.33;39.64
9523;BME280;63165;43.016;25.784;2022-09-12T11:45:51;99568.31;;;26.25;40.10
9523;BME280;63165;43.016;25.784;2022-09-12T11:48:36;99553.06;;;26.15;40.25
9523;BME280;63165;43.016;25.784;2022-09-12T11:51:06;99545.59;;;26.09;40.87
9523;BME280;63165;43.016;25.784;2022-09-12T11:53:43;99551.06;;;26.08;40.93
9523;BME280;63165;43.016;25.784;2022-09-12T11:56:14;99554.44;;;26.00;40.78
9523;BME280;63165;43.016;25.784;2022-09-12T11:58:48;99550.31;;;25.96;41.54
9523;BME280;63165;43.016;25.784;2022-09-12T12:01:22;99548.44;;;25.87;41.42
9523;BME280;63165;43.016;25.784;2022-09-12T12:03:50;99543.34;;;25.84;41.32
9523;BME280;63165;43.016;25.784;2022-09-12T12:06:23;99537.78;;;25.97;41.61
9523;BME280;63165;43.016;25.784;2022-09-12T12:08:54;99535.38;;;26.03;40.85
9523;BME280;63165;43.016;25.784;2022-09-12T12:11:27;99547.81;;;26.04;40.54
9523;BME280;63165;43.016;25.784;2022-09-12T12:13:58;99540.91;;;26.02;40.18
9523;BME280;63165;43.016;25.784;2022-09-12T12:16:28;99542.66;;;25.91;40.76
9523;BME280;63165;43.016;25.784;2022-09-12T12:18:57;99535.44;;;25.82;40.28
9523;BME280;63165;43.016;25.784;2022-09-12T12:21:37;99537.16;;;25.83;40.21
9523;BME280;63165;43.016;25.784;2022-09-12T12:24:15;99540.34;;;25.77;39.76
9523;BME280;63165;43.016;25.784;2022-09-12T12:26:53;99525.66;;;25.71;39.34
9523;BME280;63165;43.016;25.784;2022-09-12T12:29:40;99534.97;;;25.67;40.33
9523;BME280;63165;43.016;25.784;2022-09-12T12:32:24;99531.31;;;25.68;40.06
9523;BME280;63165;43.016;25.784;2022-09-12T12:35:37;99538.50;;;25.68;40.59
9523;BME280;63165;43.016;25.784;2022-09-12T12:38:26;99530.88;;;25.63;39.99
9523;BME280;63165;43.016;25.784;2022-09-12T12:47:16;99546.13;;;25.42;40.06
9523;BME280;63165;43.016;25.784;2022-09-12T12:49:50;99536.09;;;25.34;40.72
9523;BME280;63165;43.016;25.784;2022-09-12T12:52:18;99529.72;;;25.25;41.11
9523;BME280;63165;43.016;25.784;2022-09-12T12:54:51;99533.03;;;25.17;41.48
9523;BME280;63165;43.016;25.784;2022-09-12T12:57:46;99524.66;;;25.11;42.15
9523;BME280;63165;43.016;25.784;2022-09-12T13:00:27;99529.16;;;25.10;42.89
9523;BME280;63165;43.016;25.784;2022-09-12T13:02:58;99530.38;;;25.06;43.09
9523;BME280;63165;43.016;25.784;2022-09-12T13:05:28;99534.44;;;25.00;42.95
9523;BME280;63165;43.016;25.784;2022-09-12T13:08:00;99529.91;;;24.91;42.63
9523;BME280;63165;43.016;25.784;2022-09-12T13:10:29;99543.91;;;24.84;43.03
9523;BME280;63165;43.016;25.784;2022-09-12T13:13:00;99542.34;;;24.81;42.36
9523;BME280;63165;43.016;25.784;2022-09-12T13:15:50;99531.16;;;24.76;42.95
9523;BME280;63165;43.016;25.784;2022-09-12T13:18:22;99534.13;;;24.73;42.99
9523;BME280;63165;43.016;25.784;2022-09-12T13:20:58;99540.56;;;24.70;42.84
9523;BME280;63165;43.016;25.784;2022-09-12T13:23:28;99532.81;;;24.67;43.14
9523;BME280;63165;43.016;25.784;2022-09-12T13:25:56;99528.44;;;24.66;42.97
9523;BME280;63165;43.016;25.784;2022-09-12T13:28:27;99539.25;;;24.65;42.39
9523;BME280;63165;43.016;25.784;2022-09-12T13:30:57;99531.50;;;24.62;42.20
9523;BME280;63165;43.016;25.784;2022-09-12T13:33:33;99529.16;;;24.68;42.62
9523;BME280;63165;43.016;25.784;2022-09-12T13:36:50;99521.06;;;24.79;42.28
9523;BME280;63165;43.016;25.784;2022-09-12T13:39:24;99525.97;;;24.95;41.71
9523;BME280;63165;43.016;25.784;2022-09-12T13:42:15;99526.09;;;25.15;41.83
9523;BME280;63165;43.016;25.784;2022-09-12T13:44:52;99528.91;;;25.34;40.41
9523;BME280;63165;43.016;25.784;2022-09-12T13:47:25;99532.09;;;25.49;40.46